sensor_id;sensor_type;location;lat;lon;timestamp;P1;durP1;ratioP1;P2;durP2;ratioP2
14342;SDS011;7255;53.596;9.960;2023-02-18T00:02:02;16.77;;;4.60;;
14342;SDS011;7255;53.596;9.960;2023-02-18T00:04:28;18.53;;;4.93;;
14342;SDS011;7255;53.596;9.960;2023-02-18T00:06:55;17.63;;;5.20;;
14342;SDS011;7255;53.596;9.960;2023-02-18T00:09:21;21.92;;;4.82;;
14342;SDS011;7255;53.596;9.960;2023-02-18T00:11:49;18.07;;;4.40;;
14342;SDS011;7255;53.596;9.960;2023-02-18T00:14:16;18.73;;;4.27;;
14342;SDS011;7255;53.596;9.960;2023-02-18T00:16:42;25.10;;;5.40;;
14342;SDS011;7255;53.596;9.960;2023-02-18T00:19:11;13.90;;;3.90;;
14342;SDS011;7255;53.596;9.960;2023-02-18T00:21:39;18.10;;;4.60;;
14342;SDS011;7255;53.596;9.960;2023-02-18T00:24:06;19.17;;;4.57;;
14342;SDS011;7255;53.596;9.960;2023-02-18T00:26:34;20.63;;;4.57;;
14342;SDS011;7255;53.596;9.960;2023-02-18T00:29:02;18.20;;;4.97;;
14342;SDS011;7255;53.596;9.960;2023-02-18T00:31:30;15.57;;;3.93;;
14342;SDS011;7255;53.596;9.960;2023-02-18T00:33:57;16.03;;;5.17;;
14342;SDS011;7255;53.596;9.960;2023-02-18T00:36:24;20.93;;;4.70;;
14342;SDS011;7255;53.596;9.960;2023-02-18T00:38:52;16.63;;;5.03;;
14342;SDS011;7255;53.596;9.960;2023-02-18T00:41:20;21.90;;;5.17;;
14342;SDS011;7255;53.596;9.960;2023-02-18T00:43:47;12.70;;;4.17;;
14342;SDS011;7255;53.596;9.960;2023-02-18T00:46:15;24.13;;;5.10;;
14342;SDS011;7255;53.596;9.960;2023-02-18T00:48:41;20.70;;;5.87;;
14342;SDS011;7255;53.596;9.960;2023-02-18T00:51:08;22.13;;;4.20;;
14342;SDS011;7255;53.596;9.960;2023-02-18T00:53:34;20.73;;;4.47;;
14342;SDS011;7255;53.596;9.960;2023-02-18T00:56:01;16.00;;;4.60;;
14342;SDS011;7255;53.596;9.960;2023-02-18T00:58:28;20.37;;;4.90;;
14342;SDS011;7255;53.596;9.960;2023-02-18T01:00:54;20.80;;;4.93;;
14342;SDS011;7255;53.596;9.960;2023-02-18T01:03:23;23.13;;;4.70;;
14342;SDS011;7255;53.596;9.960;2023-02-18T01:05:49;16.30;;;4.50;;
14342;SDS011;7255;53.596;9.960;2023-02-18T01:08:16;17.50;;;4.63;;
14342;SDS011;7255;53.596;9.960;2023-02-18T01:10:45;18.17;;;4.27;;
14342;SDS011;7255;53.596;9.960;2023-02-18T01:13:13;23.47;;;5.53;;
14342;SDS011;7255;53.596;9.960;2023-02-18T01:15:41;22.00;;;4.50;;
14342;SDS011;7255;53.596;9.960;2023-02-18T01:18:08;20.07;;;4.40;;
14342;SDS011;7255;53.596;9.960;2023-02-18T01:20:36;23.00;;;4.67;;
14342;SDS011;7255;53.596;9.960;2023-02-18T01:23:04;21.37;;;5.07;;
14342;SDS011;7255;53.596;9.960;2023-02-18T01:25:30;17.23;;;4.10;;
14342;SDS011;7255;53.596;9.960;2023-02-18T01:27:57;13.37;;;5.30;;
14342;SDS011;7255;53.596;9.960;2023-02-18T01:30:24;20.30;;;4.70;;
14342;SDS011;7255;53.596;9.960;2023-02-18T01:32:50;30.20;;;5.23;;
14342;SDS011;7255;53.596;9.960;2023-02-18T01:35:17;25.17;;;5.20;;
14342;SDS011;7255;53.596;9.960;2023-02-18T01:37:46;16.20;;;4.23;;
14342;SDS011;7255;53.596;9.960;2023-02-18T01:40:18;21.63;;;5.37;;
14342;SDS011;7255;53.596;9.960;2023-02-18T01:42:46;21.93;;;4.50;;
14342;SDS011;7255;53.596;9.960;2023-02-18T01:48:33;18.50;;;4.90;;
14342;SDS011;7255;53.596;9.960;2023-02-18T01:51:06;26.07;;;5.67;;
14342;SDS011;7255;53.596;9.960;2023-02-18T01:53:38;21.00;;;5.30;;
14342;SDS011;7255;53.596;9.960;2023-02-18T01:56:11;16.67;;;5.10;;
14342;SDS011;7255;53.596;9.960;2023-02-18T01:58:41;22.00;;;5.27;;
14342;SDS011;7255;53.596;9.960;2023-02-18T02:01:08;21.93;;;5.37;;
14342;SDS011;7255;53.596;9.960;2023-02-18T02:03:35;15.43;;;4.40;;
14342;SDS011;7255;53.596;9.960;2023-02-18T02:06:01;21.20;;;4.03;;
14342;SDS011;7255;53.596;9.960;2023-02-18T02:08:31;23.80;;;4.87;;
14342;SDS011;7255;53.596;9.960;2023-02-18T02:11:08;21.97;;;4.93;;
14342;SDS011;7255;53.596;9.960;2023-02-18T02:13:50;19.27;;;5.00;;
14342;SDS011;7255;53.596;9.960;2023-02-18T02:16:29;23.50;;;4.70;;
14342;SDS011;7255;53.596;9.960;2023-02-18T02:19:09;16.30;;;4.87;;
14342;SDS011;7255;53.596;9.960;2023-02-18T02:22:03;14.73;;;3.87;;
14342;SDS011;7255;53.596;9.960;2023-02-18T02:24:57;18.23;;;3.60;;
14342;SDS011;7255;53.596;9.960;2023-02-18T02:27:39;16.47;;;4.33;;
14342;SDS011;7255;53.596;9.960;2023-02-18T02:33:33;16.37;;;4.23;;
14342;SDS011;7255;53.596;9.960;2023-02-18T02:36:23;11.27;;;3.83;;
14342;SDS011;7255;53.596;9.960;2023-02-18T02:38:58;17.97;;;4.33;;
14342;SDS011;7255;53.596;9.960;2023-02-18T02:41:39;9.50;;;3.97;;
14342;SDS011;7255;53.596;9.960;2023-02-18T02:44:14;13.90;;;3.47;;
14342;SDS011;7255;53.596;9.960;2023-02-18T02:46:46;16.40;;;4.20;;
14342;SDS011;7255;53.596;9.960;2023-02-18T02:49:18;15.40;;;3.70;;
14342;SDS011;7255;53.596;9.960;2023-02-18T02:51:52;17.70;;;4.60;;
14342;SDS011;7255;53.596;9.960;2023-02-18T02:54:26;12.10;;;4.33;;
14342;SDS011;7255;53.596;9.960;2023-02-18T02:57:03;13.03;;;4.57;;
14342;SDS011;7255;53.596;9.960;2023-02-18T02:59:31;12.50;;;3.83;;
14342;SDS011;7255;53.596;9.960;2023-02-18T03:02:02;11.17;;;3.87;;
14342;SDS011;7255;53.596;9.960;2023-02-18T03:04:51;12.73;;;3.30;;
14342;SDS011;7255;53.596;9.960;2023-02-18T03:07:36;17.73;;;3.47;;
14342;SDS011;7255;53.596;9.960;2023-02-18T03:10:16;19.57;;;4.13;;
14342;SDS011;7255;53.596;9.960;2023-02-18T03:12:53;16.50;;;4.00;;
14342;SDS011;7255;53.596;9.960;2023-02-18T03:15:27;15.03;;;4.23;;
14342;SDS011;7255;53.596;9.960;2023-02-18T03:18:02;15.30;;;3.70;;
14342;SDS011;7255;53.596;9.960;2023-02-18T03:20:34;8.57;;;3.40;;
14342;SDS011;7255;53.596;9.960;2023-02-18T03:23:04;16.10;;;3.70;;
14342;SDS011;7255;53.596;9.960;2023-02-18T03:25:34;12.20;;;4.00;;
14342;SDS011;7255;53.596;9.960;2023-02-18T03:28:03;13.33;;;3.60;;
14342;SDS011;7255;53.596;9.960;2023-02-18T03:30:35;12.83;;;3.47;;
14342;SDS011;7255;53.596;9.960;2023-02-18T03:33:06;15.73;;;3.70;;
14342;SDS011;7255;53.596;9.960;2023-02-18T03:35:36;15.17;;;4.80;;
14342;SDS011;7255;53.596;9.960;2023-02-18T03:38:06;11.63;;;4.53;;
14342;SDS011;7255;53.596;9.960;2023-02-18T03:40:37;12.50;;;3.83;;
14342;SDS011;7255;53.596;9.960;2023-02-18T03:43:04;13.47;;;3.40;;
14342;SDS011;7255;53.596;9.960;2023-02-18T03:45:30;16.57;;;3.97;;
14342;SDS011;7255;53.596;9.960;2023-02-18T03:47:56;20.23;;;3.67;;
14342;SDS011;7255;53.596;9.960;2023-02-18T03:50:23;12.43;;;3.30;;
14342;SDS011;7255;53.596;9.960;2023-02-18T03:52:49;11.47;;;3.80;;
14342;SDS011;7255;53.596;9.960;2023-02-18T03:55:17;13.83;;;3.23;;
14342;SDS011;7255;53.596;9.960;2023-02-18T03:57:43;12.20;;;3.60;;
14342;SDS011;7255;53.596;9.960;2023-02-18T04:00:10;9.67;;;2.77;;
14342;SDS011;7255;53.596;9.960;2023-02-18T04:02:37;10.07;;;2.90;;
14342;SDS011;7255;53.596;9.960;2023-02-18T04:05:03;9.00;;;2.70;;
14342;SDS011;7255;53.596;9.960;2023-02-18T04:07:31;10.67;;;2.70;;
14342;SDS011;7255;53.596;9.960;2023-02-18T04:09:57;11.73;;;3.00;;
14342;SDS011;7255;53.596;9.960;2023-02-18T04:12:25;8.55;;;2.80;;
14342;SDS011;7255;53.596;9.960;2023-02-18T04:14:51;7.33;;;2.63;;
14342;SDS011;7255;53.596;9.960;2023-02-18T04:17:17;11.53;;;3.37;;
14342;SDS011;7255;53.596;9.960;2023-02-18T04:19:44;14.03;;;2.90;;
14342;SDS011;7255;53.596;9.960;2023-02-18T04:22:10;11.73;;;3.10;;
14342;SDS011;7255;53.596;9.960;2023-02-18T04:24:36;13.07;;;3.13;;
14342;SDS011;7255;53.596;9.960;2023-02-18T04:27:03;11.67;;;3.50;;
14342;SDS011;7255;53.596;9.960;2023-02-18T04:29:30;13.15;;;3.08;;
14342;SDS011;7255;53.596;9.960;2023-02-18T04:31:57;9.00;;;3.50;;
14342;SDS011;7255;53.596;9.960;2023-02-18T04:34:23;8.73;;;3.20;;
14342;SDS011;7255;53.596;9.960;2023-02-18T04:36:50;6.80;;;2.80;;
14342;SDS011;7255;53.596;9.960;2023-02-18T04:39:16;11.67;;;3.80;;
14342;SDS011;7255;53.596;9.960;2023-02-18T04:41:43;9.03;;;2.57;;
14342;SDS011;7255;53.596;9.960;2023-02-18T04:44:09;16.60;;;3.13;;
14342;SDS011;7255;53.596;9.960;2023-02-18T04:46:37;8.97;;;3.30;;
14342;SDS011;7255;53.596;9.960;2023-02-18T04:49:03;7.80;;;2.73;;
14342;SDS011;7255;53.596;9.960;2023-02-18T04:51:29;12.17;;;2.97;;
14342;SDS011;7255;53.596;9.960;2023-02-18T04:53:56;9.70;;;3.03;;
14342;SDS011;7255;53.596;9.960;2023-02-18T04:56:22;7.30;;;2.73;;
14342;SDS011;7255;53.596;9.960;2023-02-18T04:58:48;8.67;;;3.20;;
14342;SDS011;7255;53.596;9.960;2023-02-18T05:01:15;8.73;;;2.67;;
14342;SDS011;7255;53.596;9.960;2023-02-18T05:03:42;9.53;;;3.10;;
14342;SDS011;7255;53.596;9.960;2023-02-18T05:06:09;9.60;;;3.13;;
14342;SDS011;7255;53.596;9.960;2023-02-18T05:08:36;14.60;;;3.40;;
14342;SDS011;7255;53.596;9.960;2023-02-18T05:11:04;8.80;;;3.10;;
14342;SDS011;7255;53.596;9.960;2023-02-18T05:13:31;12.03;;;3.40;;
14342;SDS011;7255;53.596;9.960;2023-02-18T05:15:57;6.37;;;2.40;;
14342;SDS011;7255;53.596;9.960;2023-02-18T05:18:23;9.23;;;3.20;;
14342;SDS011;7255;53.596;9.960;2023-02-18T05:20:51;8.47;;;2.70;;
14342;SDS011;7255;53.596;9.960;2023-02-18T05:23:17;9.50;;;2.83;;
14342;SDS011;7255;53.596;9.960;2023-02-18T05:25:45;8.20;;;2.70;;
14342;SDS011;7255;53.596;9.960;2023-02-18T05:28:12;7.87;;;2.77;;
14342;SDS011;7255;53.596;9.960;2023-02-18T05:30:38;7.87;;;2.47;;
14342;SDS011;7255;53.596;9.960;2023-02-18T05:33:05;11.53;;;3.40;;
14342;SDS011;7255;53.596;9.960;2023-02-18T05:35:31;9.83;;;2.93;;
14342;SDS011;7255;53.596;9.960;2023-02-18T05:37:59;8.43;;;2.93;;
14342;SDS011;7255;53.596;9.960;2023-02-18T05:40:25;9.30;;;2.87;;
14342;SDS011;7255;53.596;9.960;2023-02-18T05:42:51;12.93;;;3.30;;
14342;SDS011;7255;53.596;9.960;2023-02-18T05:45:18;13.43;;;4.03;;
14342;SDS011;7255;53.596;9.960;2023-02-18T05:47:43;8.70;;;3.20;;
14342;SDS011;7255;53.596;9.960;2023-02-18T05:50:10;12.83;;;3.03;;
14342;SDS011;7255;53.596;9.960;2023-02-18T05:52:36;15.37;;;3.37;;
14342;SDS011;7255;53.596;9.960;2023-02-18T05:55:04;10.40;;;3.23;;
14342;SDS011;7255;53.596;9.960;2023-02-18T05:57:31;8.33;;;2.97;;
14342;SDS011;7255;53.596;9.960;2023-02-18T05:59:57;11.10;;;2.87;;
14342;SDS011;7255;53.596;9.960;2023-02-18T06:02:24;11.77;;;2.90;;
14342;SDS011;7255;53.596;9.960;2023-02-18T06:04:50;15.93;;;3.33;;
14342;SDS011;7255;53.596;9.960;2023-02-18T06:07:16;11.17;;;3.57;;
14342;SDS011;7255;53.596;9.960;2023-02-18T06:09:44;10.13;;;3.00;;
14342;SDS011;7255;53.596;9.960;2023-02-18T06:12:12;11.47;;;2.50;;
14342;SDS011;7255;53.596;9.960;2023-02-18T06:14:39;13.70;;;3.17;;
14342;SDS011;7255;53.596;9.960;2023-02-18T06:17:06;9.80;;;3.13;;
14342;SDS011;7255;53.596;9.960;2023-02-18T06:19:32;11.37;;;4.53;;
14342;SDS011;7255;53.596;9.960;2023-02-18T06:21:58;7.50;;;2.70;;
14342;SDS011;7255;53.596;9.960;2023-02-18T06:24:25;7.17;;;2.60;;
14342;SDS011;7255;53.596;9.960;2023-02-18T06:26:51;10.43;;;3.20;;
14342;SDS011;7255;53.596;9.960;2023-02-18T06:29:19;11.20;;;3.43;;
14342;SDS011;7255;53.596;9.960;2023-02-18T06:31:45;12.53;;;3.00;;
14342;SDS011;7255;53.596;9.960;2023-02-18T06:34:12;8.90;;;2.80;;
14342;SDS011;7255;53.596;9.960;2023-02-18T06:36:38;8.13;;;2.70;;
14342;SDS011;7255;53.596;9.960;2023-02-18T06:39:06;9.63;;;2.80;;
14342;SDS011;7255;53.596;9.960;2023-02-18T06:41:33;9.70;;;2.93;;
14342;SDS011;7255;53.596;9.960;2023-02-18T06:43:59;9.53;;;2.50;;
14342;SDS011;7255;53.596;9.960;2023-02-18T06:46:27;6.57;;;2.37;;
14342;SDS011;7255;53.596;9.960;2023-02-18T06:48:53;8.63;;;2.73;;
14342;SDS011;7255;53.596;9.960;2023-02-18T06:51:19;5.53;;;2.47;;
14342;SDS011;7255;53.596;9.960;2023-02-18T06:53:46;9.10;;;3.20;;
14342;SDS011;7255;53.596;9.960;2023-02-18T06:56:12;7.27;;;2.27;;
14342;SDS011;7255;53.596;9.960;2023-02-18T06:58:38;6.83;;;2.50;;
14342;SDS011;7255;53.596;9.960;2023-02-18T07:01:05;8.10;;;2.53;;
14342;SDS011;7255;53.596;9.960;2023-02-18T07:03:32;11.27;;;2.40;;
14342;SDS011;7255;53.596;9.960;2023-02-18T07:05:59;11.27;;;3.63;;
14342;SDS011;7255;53.596;9.960;2023-02-18T07:08:25;7.67;;;2.47;;
14342;SDS011;7255;53.596;9.960;2023-02-18T07:10:53;12.63;;;2.93;;
14342;SDS011;7255;53.596;9.960;2023-02-18T07:13:19;10.43;;;2.80;;
14342;SDS011;7255;53.596;9.960;2023-02-18T07:15:46;8.27;;;2.43;;
14342;SDS011;7255;53.596;9.960;2023-02-18T07:18:12;10.53;;;3.17;;
14342;SDS011;7255;53.596;9.960;2023-02-18T07:20:40;7.80;;;3.27;;
14342;SDS011;7255;53.596;9.960;2023-02-18T07:23:06;7.73;;;2.67;;
14342;SDS011;7255;53.596;9.960;2023-02-18T07:25:33;10.37;;;3.60;;
14342;SDS011;7255;53.596;9.960;2023-02-18T07:27:59;15.00;;;3.43;;
14342;SDS011;7255;53.596;9.960;2023-02-18T07:30:25;9.73;;;3.50;;
14342;SDS011;7255;53.596;9.960;2023-02-18T07:32:52;19.73;;;3.77;;
14342;SDS011;7255;53.596;9.960;2023-02-18T07:35:18;10.07;;;3.33;;
14342;SDS011;7255;53.596;9.960;2023-02-18T07:37:47;10.68;;;3.35;;
14342;SDS011;7255;53.596;9.960;2023-02-18T07:40:15;8.33;;;3.40;;
14342;SDS011;7255;53.596;9.960;2023-02-18T07:42:43;11.93;;;3.17;;
14342;SDS011;7255;53.596;9.960;2023-02-18T07:45:10;10.80;;;3.40;;
14342;SDS011;7255;53.596;9.960;2023-02-18T07:47:36;11.48;;;3.45;;
14342;SDS011;7255;53.596;9.960;2023-02-18T07:50:03;10.70;;;3.47;;
14342;SDS011;7255;53.596;9.960;2023-02-18T07:52:31;12.03;;;3.60;;
14342;SDS011;7255;53.596;9.960;2023-02-18T07:54:58;14.05;;;3.00;;
14342;SDS011;7255;53.596;9.960;2023-02-18T07:57:25;9.67;;;3.27;;
14342;SDS011;7255;53.596;9.960;2023-02-18T07:59:51;14.40;;;3.40;;
14342;SDS011;7255;53.596;9.960;2023-02-18T08:02:18;11.27;;;3.05;;
14342;SDS011;7255;53.596;9.960;2023-02-18T08:04:46;9.60;;;2.85;;
14342;SDS011;7255;53.596;9.960;2023-02-18T08:07:13;13.47;;;3.70;;
14342;SDS011;7255;53.596;9.960;2023-02-18T08:09:40;16.60;;;3.35;;
14342;SDS011;7255;53.596;9.960;2023-02-18T08:12:08;11.65;;;3.60;;
14342;SDS011;7255;53.596;9.960;2023-02-18T08:14:35;10.85;;;2.97;;
14342;SDS011;7255;53.596;9.960;2023-02-18T08:17:01;12.18;;;3.00;;
14342;SDS011;7255;53.596;9.960;2023-02-18T08:19:27;9.95;;;3.58;;
14342;SDS011;7255;53.596;9.960;2023-02-18T08:21:54;9.60;;;2.90;;
14342;SDS011;7255;53.596;9.960;2023-02-18T08:24:20;15.18;;;3.75;;
14342;SDS011;7255;53.596;9.960;2023-02-18T08:26:46;11.48;;;4.00;;
14342;SDS011;7255;53.596;9.960;2023-02-18T08:29:14;8.50;;;3.95;;
14342;SDS011;7255;53.596;9.960;2023-02-18T08:31:40;13.20;;;5.15;;
14342;SDS011;7255;53.596;9.960;2023-02-18T08:34:07;12.70;;;4.65;;
14342;SDS011;7255;53.596;9.960;2023-02-18T08:36:34;15.82;;;4.75;;
14342;SDS011;7255;53.596;9.960;2023-02-18T08:39:01;15.85;;;4.93;;
14342;SDS011;7255;53.596;9.960;2023-02-18T08:41:27;11.18;;;4.22;;
14342;SDS011;7255;53.596;9.960;2023-02-18T08:43:54;11.85;;;4.00;;
14342;SDS011;7255;53.596;9.960;2023-02-18T08:46:21;15.82;;;4.60;;
14342;SDS011;7255;53.596;9.960;2023-02-18T08:48:48;17.20;;;5.05;;
14342;SDS011;7255;53.596;9.960;2023-02-18T08:51:15;12.18;;;4.82;;
14342;SDS011;7255;53.596;9.960;2023-02-18T08:53:42;8.38;;;4.37;;
14342;SDS011;7255;53.596;9.960;2023-02-18T08:56:10;11.57;;;5.00;;
14342;SDS011;7255;53.596;9.960;2023-02-18T08:58:37;11.90;;;4.28;;
14342;SDS011;7255;53.596;9.960;2023-02-18T09:01:04;13.23;;;4.35;;
14342;SDS011;7255;53.596;9.960;2023-02-18T09:03:33;10.63;;;4.00;;
14342;SDS011;7255;53.596;9.960;2023-02-18T09:06:00;16.12;;;4.72;;
14342;SDS011;7255;53.596;9.960;2023-02-18T09:08:27;15.02;;;6.25;;
14342;SDS011;7255;53.596;9.960;2023-02-18T09:10:54;12.77;;;4.72;;
14342;SDS011;7255;53.596;9.960;2023-02-18T09:13:21;13.43;;;4.95;;
14342;SDS011;7255;53.596;9.960;2023-02-18T09:15:54;10.90;;;5.32;;
14342;SDS011;7255;53.596;9.960;2023-02-18T09:18:21;15.65;;;5.25;;
14342;SDS011;7255;53.596;9.960;2023-02-18T09:20:49;13.35;;;6.62;;
14342;SDS011;7255;53.596;9.960;2023-02-18T09:23:15;20.73;;;7.55;;
14342;SDS011;7255;53.596;9.960;2023-02-18T09:25:42;21.17;;;8.32;;
14342;SDS011;7255;53.596;9.960;2023-02-18T09:28:09;15.07;;;8.20;;
14342;SDS011;7255;53.596;9.960;2023-02-18T09:30:35;17.60;;;8.20;;
14342;SDS011;7255;53.596;9.960;2023-02-18T09:33:01;15.85;;;9.05;;
14342;SDS011;7255;53.596;9.960;2023-02-18T09:35:28;16.62;;;9.05;;
14342;SDS011;7255;53.596;9.960;2023-02-18T09:37:55;23.05;;;10.48;;
14342;SDS011;7255;53.596;9.960;2023-02-18T09:40:23;17.77;;;9.32;;
14342;SDS011;7255;53.596;9.960;2023-02-18T09:42:52;16.73;;;10.40;;
14342;SDS011;7255;53.596;9.960;2023-02-18T09:45:21;13.50;;;9.55;;
14342;SDS011;7255;53.596;9.960;2023-02-18T09:47:48;18.52;;;10.30;;
14342;SDS011;7255;53.596;9.960;2023-02-18T09:50:18;15.57;;;10.10;;
14342;SDS011;7255;53.596;9.960;2023-02-18T09:52:47;15.57;;;10.60;;
14342;SDS011;7255;53.596;9.960;2023-02-18T09:55:18;19.40;;;11.38;;
14342;SDS011;7255;53.596;9.960;2023-02-18T09:57:47;17.12;;;11.23;;
14342;SDS011;7255;53.596;9.960;2023-02-18T10:00:16;15.32;;;11.02;;
14342;SDS011;7255;53.596;9.960;2023-02-18T10:02:49;16.70;;;10.45;;
14342;SDS011;7255;53.596;9.960;2023-02-18T10:05:20;15.10;;;10.80;;
14342;SDS011;7255;53.596;9.960;2023-02-18T10:07:48;18.15;;;11.15;;
14342;SDS011;7255;53.596;9.960;2023-02-18T10:10:20;16.27;;;11.82;;
14342;SDS011;7255;53.596;9.960;2023-02-18T10:12:54;16.67;;;12.00;;
14342;SDS011;7255;53.596;9.960;2023-02-18T10:15:22;16.75;;;11.52;;
14342;SDS011;7255;53.596;9.960;2023-02-18T10:17:52;16.80;;;12.23;;
14342;SDS011;7255;53.596;9.960;2023-02-18T10:20:21;16.67;;;12.13;;
14342;SDS011;7255;53.596;9.960;2023-02-18T10:22:49;16.05;;;11.85;;
14342;SDS011;7255;53.596;9.960;2023-02-18T10:25:19;17.50;;;12.23;;
14342;SDS011;7255;53.596;9.960;2023-02-18T10:27:49;18.65;;;12.55;;
14342;SDS011;7255;53.596;9.960;2023-02-18T10:30:20;16.48;;;12.27;;
14342;SDS011;7255;53.596;9.960;2023-02-18T10:32:50;16.33;;;12.70;;
14342;SDS011;7255;53.596;9.960;2023-02-18T10:35:22;18.67;;;12.65;;
14342;SDS011;7255;53.596;9.960;2023-02-18T10:37:53;16.35;;;14.02;;
14342;SDS011;7255;53.596;9.960;2023-02-18T10:40:29;18.02;;;14.50;;
14342;SDS011;7255;53.596;9.960;2023-02-18T10:43:16;16.10;;;12.65;;
14342;SDS011;7255;53.596;9.960;2023-02-18T10:45:51;15.73;;;12.32;;
14342;SDS011;7255;53.596;9.960;2023-02-18T10:48:42;17.87;;;12.43;;
14342;SDS011;7255;53.596;9.960;2023-02-18T10:51:23;15.38;;;12.48;;
14342;SDS011;7255;53.596;9.960;2023-02-18T10:53:54;13.68;;;11.93;;
14342;SDS011;7255;53.596;9.960;2023-02-18T10:56:32;14.73;;;12.20;;
14342;SDS011;7255;53.596;9.960;2023-02-18T10:59:05;15.57;;;11.63;;
14342;SDS011;7255;53.596;9.960;2023-02-18T11:01:36;14.30;;;11.60;;
14342;SDS011;7255;53.596;9.960;2023-02-18T11:04:04;14.52;;;11.88;;
14342;SDS011;7255;53.596;9.960;2023-02-18T11:06:37;11.80;;;10.60;;
14342;SDS011;7255;53.596;9.960;2023-02-18T11:09:05;13.07;;;11.18;;
14342;SDS011;7255;53.596;9.960;2023-02-18T11:11:35;13.75;;;10.13;;
14342;SDS011;7255;53.596;9.960;2023-02-18T11:14:04;13.07;;;11.23;;
14342;SDS011;7255;53.596;9.960;2023-02-18T11:16:35;12.93;;;11.07;;
14342;SDS011;7255;53.596;9.960;2023-02-18T11:19:03;15.38;;;11.15;;
14342;SDS011;7255;53.596;9.960;2023-02-18T11:21:30;14.60;;;11.48;;
14342;SDS011;7255;53.596;9.960;2023-02-18T11:24:05;13.62;;;10.77;;
14342;SDS011;7255;53.596;9.960;2023-02-18T11:26:35;17.40;;;12.13;;
14342;SDS011;7255;53.596;9.960;2023-02-18T11:29:05;14.38;;;11.95;;
14342;SDS011;7255;53.596;9.960;2023-02-18T11:31:40;14.90;;;11.88;;
14342;SDS011;7255;53.596;9.960;2023-02-18T11:34:13;13.40;;;10.55;;
14342;SDS011;7255;53.596;9.960;2023-02-18T11:36:43;11.68;;;9.68;;
14342;SDS011;7255;53.596;9.960;2023-02-18T11:39:16;12.73;;;9.57;;
14342;SDS011;7255;53.596;9.960;2023-02-18T11:41:47;12.65;;;8.90;;
14342;SDS011;7255;53.596;9.960;2023-02-18T11:44:20;9.48;;;8.20;;
14342;SDS011;7255;53.596;9.960;2023-02-18T11:46:56;6.93;;;6.10;;
14342;SDS011;7255;53.596;9.960;2023-02-18T11:49:24;4.82;;;4.20;;
14342;SDS011;7255;53.596;9.960;2023-02-18T11:51:51;3.15;;;2.85;;
14342;SDS011;7255;53.596;9.960;2023-02-18T11:54:22;2.42;;;2.22;;
14342;SDS011;7255;53.596;9.960;2023-02-18T11:56:55;2.47;;;2.28;;
14342;SDS011;7255;53.596;9.960;2023-02-18T11:59:23;2.67;;;1.98;;
14342;SDS011;7255;53.596;9.960;2023-02-18T12:01:51;2.12;;;1.67;;
14342;SDS011;7255;53.596;9.960;2023-02-18T12:04:23;1.73;;;1.62;;
14342;SDS011;7255;53.596;9.960;2023-02-18T12:06:57;1.30;;;1.20;;
14342;SDS011;7255;53.596;9.960;2023-02-18T12:09:32;2.67;;;1.15;;
14342;SDS011;7255;53.596;9.960;2023-02-18T12:12:05;2.20;;;1.27;;
14342;SDS011;7255;53.596;9.960;2023-02-18T12:14:37;1.30;;;1.20;;
14342;SDS011;7255;53.596;9.960;2023-02-18T12:17:11;1.20;;;1.10;;
14342;SDS011;7255;53.596;9.960;2023-02-18T12:19:50;0.90;;;0.90;;
14342;SDS011;7255;53.596;9.960;2023-02-18T12:22:27;1.30;;;1.20;;
14342;SDS011;7255;53.596;9.960;2023-02-18T12:25:09;2.90;;;1.52;;
14342;SDS011;7255;53.596;9.960;2023-02-18T12:27:51;3.47;;;1.52;;
14342;SDS011;7255;53.596;9.960;2023-02-18T12:30:31;3.37;;;1.62;;
14342;SDS011;7255;53.596;9.960;2023-02-18T12:33:24;3.30;;;1.92;;
14342;SDS011;7255;53.596;9.960;2023-02-18T12:36:01;5.57;;;1.90;;
14342;SDS011;7255;53.596;9.960;2023-02-18T12:41:31;6.90;;;2.83;;
14342;SDS011;7255;53.596;9.960;2023-02-18T12:44:10;7.87;;;3.10;;
14342;SDS011;7255;53.596;9.960;2023-02-18T12:46:53;7.37;;;3.05;;
14342;SDS011;7255;53.596;9.960;2023-02-18T12:49:41;5.97;;;2.78;;
14342;SDS011;7255;53.596;9.960;2023-02-18T12:52:30;10.70;;;3.85;;
14342;SDS011;7255;53.596;9.960;2023-02-18T12:55:14;9.38;;;3.22;;
14342;SDS011;7255;53.596;9.960;2023-02-18T12:57:52;6.95;;;3.00;;
14342;SDS011;7255;53.596;9.960;2023-02-18T13:00:40;9.32;;;3.10;;
14342;SDS011;7255;53.596;9.960;2023-02-18T13:03:29;7.82;;;2.78;;
14342;SDS011;7255;53.596;9.960;2023-02-18T13:06:13;10.05;;;3.72;;
14342;SDS011;7255;53.596;9.960;2023-02-18T13:08:54;9.73;;;3.55;;
14342;SDS011;7255;53.596;9.960;2023-02-18T13:11:31;12.10;;;4.00;;
14342;SDS011;7255;53.596;9.960;2023-02-18T13:14:08;13.50;;;3.55;;
14342;SDS011;7255;53.596;9.960;2023-02-18T13:16:39;13.75;;;4.60;;
14342;SDS011;7255;53.596;9.960;2023-02-18T13:19:11;14.38;;;4.68;;
14342;SDS011;7255;53.596;9.960;2023-02-18T13:21:43;20.88;;;5.32;;
14342;SDS011;7255;53.596;9.960;2023-02-18T13:24:12;16.73;;;3.83;;
14342;SDS011;7255;53.596;9.960;2023-02-18T13:26:42;13.32;;;4.05;;
14342;SDS011;7255;53.596;9.960;2023-02-18T13:29:17;15.35;;;4.37;;
14342;SDS011;7255;53.596;9.960;2023-02-18T13:31:54;15.02;;;4.07;;
14342;SDS011;7255;53.596;9.960;2023-02-18T13:34:33;13.95;;;4.37;;
14342;SDS011;7255;53.596;9.960;2023-02-18T13:37:05;15.35;;;3.95;;
14342;SDS011;7255;53.596;9.960;2023-02-18T13:39:46;20.60;;;4.57;;
14342;SDS011;7255;53.596;9.960;2023-02-18T13:42:23;15.93;;;4.45;;
14342;SDS011;7255;53.596;9.960;2023-02-18T13:45:02;16.48;;;5.07;;
14342;SDS011;7255;53.596;9.960;2023-02-18T13:47:39;12.40;;;4.53;;
14342;SDS011;7255;53.596;9.960;2023-02-18T13:53:14;16.05;;;5.18;;
14342;SDS011;7255;53.596;9.960;2023-02-18T13:55:49;13.13;;;4.18;;
14342;SDS011;7255;53.596;9.960;2023-02-18T13:58:19;11.57;;;4.03;;
14342;SDS011;7255;53.596;9.960;2023-02-18T14:00:49;14.15;;;4.18;;
14342;SDS011;7255;53.596;9.960;2023-02-18T14:03:30;11.68;;;4.55;;
14342;SDS011;7255;53.596;9.960;2023-02-18T14:06:00;12.52;;;4.28;;
14342;SDS011;7255;53.596;9.960;2023-02-18T14:08:30;11.88;;;4.00;;
14342;SDS011;7255;53.596;9.960;2023-02-18T14:11:22;14.45;;;4.37;;
14342;SDS011;7255;53.596;9.960;2023-02-18T14:14:32;8.27;;;4.03;;
14342;SDS011;7255;53.596;9.960;2023-02-18T14:20:28;4.95;;;3.87;;
14342;SDS011;7255;53.596;9.960;2023-02-18T14:26:04;5.12;;;3.92;;
14342;SDS011;7255;53.596;9.960;2023-02-18T14:28:37;5.45;;;4.10;;
14342;SDS011;7255;53.596;9.960;2023-02-18T14:31:16;5.50;;;3.85;;
14342;SDS011;7255;53.596;9.960;2023-02-18T14:33:52;3.75;;;3.45;;
14342;SDS011;7255;53.596;9.960;2023-02-18T14:36:40;3.78;;;3.47;;
14342;SDS011;7255;53.596;9.960;2023-02-18T14:39:21;4.53;;;4.07;;
14342;SDS011;7255;53.596;9.960;2023-02-18T14:41:57;4.28;;;3.97;;
14342;SDS011;7255;53.596;9.960;2023-02-18T14:44:32;4.82;;;4.43;;
14342;SDS011;7255;53.596;9.960;2023-02-18T14:47:11;5.57;;;5.07;;
14342;SDS011;7255;53.596;9.960;2023-02-18T14:49:48;4.20;;;3.90;;
14342;SDS011;7255;53.596;9.960;2023-02-18T14:52:21;5.53;;;4.78;;
14342;SDS011;7255;53.596;9.960;2023-02-18T14:54:54;4.43;;;4.00;;
14342;SDS011;7255;53.596;9.960;2023-02-18T14:57:22;3.72;;;3.42;;
14342;SDS011;7255;53.596;9.960;2023-02-18T14:59:57;4.10;;;3.70;;
14342;SDS011;7255;53.596;9.960;2023-02-18T15:02:25;3.58;;;3.28;;
14342;SDS011;7255;53.596;9.960;2023-02-18T15:05:00;5.47;;;3.80;;
14342;SDS011;7255;53.596;9.960;2023-02-18T15:07:37;4.28;;;3.62;;
14342;SDS011;7255;53.596;9.960;2023-02-18T15:10:04;3.87;;;3.58;;
14342;SDS011;7255;53.596;9.960;2023-02-18T15:12:37;3.70;;;3.40;;
14342;SDS011;7255;53.596;9.960;2023-02-18T15:15:04;2.78;;;2.55;;
14342;SDS011;7255;53.596;9.960;2023-02-18T15:17:31;2.70;;;2.50;;
14342;SDS011;7255;53.596;9.960;2023-02-18T15:19:58;2.40;;;2.10;;
14342;SDS011;7255;53.596;9.960;2023-02-18T15:22:30;1.97;;;1.83;;
14342;SDS011;7255;53.596;9.960;2023-02-18T15:25:01;2.47;;;2.28;;
14342;SDS011;7255;53.596;9.960;2023-02-18T15:27:28;2.30;;;2.10;;
14342;SDS011;7255;53.596;9.960;2023-02-18T15:30:03;2.10;;;1.90;;